Layton, Florida
Current Conditions -  °F | °C
As of 11:53 AM on Friday 28 Nov 2014 (Local Time) from KMTH Reporting Station
Clear Clear  
Wind Chill: 66°   Ceiling: Unl
Heat Index: 66°   Visibility: 10mi
Dew Point: 53°   Wind: 14mph
Humidity: 63%   Direction: 10°N
Pressure: 30.21"   Gusts: NA
Location:  24.8241°N, 80.818°W
Report Text: KMTH 281653Z AUTO 01012KT 10SM CLR 19/12 A3021 RMK AO2 SLP230 T01890117
Loading
Personal Weather Stations






























Interactive Weather Map New forecast layout! Learn more

10-Day Weather Forecast

Advertisements
Track Severe Weather on mobile